createdAt,value
2022-08-30T00:01:57.882Z,8.30
2022-08-30T00:04:24.535Z,8.18
2022-08-30T00:06:50.985Z,7.95
2022-08-30T00:09:17.479Z,8.60
2022-08-30T00:11:43.880Z,8.32
2022-08-30T00:14:10.387Z,8.02
2022-08-30T00:16:36.853Z,7.72
2022-08-30T00:19:06.394Z,7.70
2022-08-30T00:21:39.454Z,7.78
2022-08-30T00:24:06.192Z,7.65
2022-08-30T00:26:32.586Z,7.72
2022-08-30T00:28:59.080Z,7.80
2022-08-30T00:31:25.586Z,8.23
2022-08-30T00:33:52.150Z,7.72
2022-08-30T00:36:18.565Z,8.20
2022-08-30T00:38:45.091Z,8.20
2022-08-30T00:41:11.590Z,8.13
2022-08-30T00:43:38.240Z,8.23
2022-08-30T00:46:08.681Z,8.15
2022-08-30T00:48:38.904Z,7.93
2022-08-30T00:51:11.689Z,7.60
2022-08-30T00:53:42.567Z,7.80
2022-08-30T00:56:10.119Z,8.00
2022-08-30T00:58:42.442Z,8.60
2022-08-30T01:01:09.822Z,8.32
2022-08-30T01:03:38.175Z,8.57
2022-08-30T01:06:05.852Z,8.40
2022-08-30T01:08:32.355Z,8.30
2022-08-30T01:11:00.178Z,8.32
2022-08-30T01:13:27.565Z,8.43
2022-08-30T01:15:54.855Z,8.60
2022-08-30T01:18:23.719Z,8.27
2022-08-30T01:21:01.353Z,8.27
2022-08-30T01:23:28.793Z,8.52
2022-08-30T01:25:56.663Z,8.27
2022-08-30T01:28:25.658Z,8.40
2022-08-30T01:30:53.223Z,8.20
2022-08-30T01:33:20.880Z,9.05
2022-08-30T01:35:47.410Z,8.52
2022-08-30T01:38:14.890Z,8.65
2022-08-30T01:40:41.644Z,8.68
2022-08-30T01:43:10.075Z,8.60
2022-08-30T01:45:36.639Z,8.50
2022-08-30T01:48:03.839Z,8.73
2022-08-30T01:50:33.889Z,8.55
2022-08-30T01:53:00.863Z,8.52
2022-08-30T01:55:27.752Z,8.48
2022-08-30T01:57:54.278Z,8.75
2022-08-30T02:00:20.842Z,8.70
2022-08-30T02:02:47.360Z,8.20
2022-08-30T02:05:13.827Z,8.77
2022-08-30T02:07:40.424Z,8.80
2022-08-30T02:10:07.560Z,8.65
2022-08-30T02:12:34.890Z,8.32
2022-08-30T02:15:01.383Z,8.90
2022-08-30T02:17:27.951Z,9.10
2022-08-30T02:19:54.438Z,8.80
2022-08-30T02:22:20.989Z,8.48
2022-08-30T02:24:47.437Z,8.70
2022-08-30T02:27:13.823Z,8.73
2022-08-30T02:29:40.331Z,8.60
2022-08-30T02:32:06.991Z,9.07
2022-08-30T02:34:33.842Z,8.65
2022-08-30T02:37:01.001Z,8.90
2022-08-30T02:39:27.588Z,8.85
2022-08-30T02:41:54.051Z,8.40
2022-08-30T02:44:20.516Z,8.73
2022-08-30T02:46:48.267Z,8.57
2022-08-30T02:49:33.575Z,8.90
2022-08-30T02:52:00.242Z,8.85
2022-08-30T02:54:26.778Z,8.82
2022-08-30T02:56:53.931Z,8.65
2022-08-30T02:59:20.406Z,9.20
2022-08-30T03:01:46.961Z,8.85
2022-08-30T03:04:13.446Z,8.23
2022-08-30T03:06:41.405Z,8.90
2022-08-30T03:09:08.131Z,8.60
2022-08-30T03:11:34.826Z,8.40
2022-08-30T03:14:01.314Z,9.82
2022-08-30T03:16:27.934Z,9.65
2022-08-30T03:18:54.481Z,9.50
2022-08-30T03:21:20.938Z,9.18
2022-08-30T03:23:47.421Z,10.32
2022-08-30T03:26:14.995Z,10.02
2022-08-30T03:28:43.084Z,10.00
2022-08-30T03:31:10.083Z,9.80
2022-08-30T03:33:40.000Z,9.60
2022-08-30T03:36:08.478Z,9.75
2022-08-30T03:38:35.124Z,9.88
2022-08-30T03:41:01.825Z,9.05
2022-08-30T03:43:28.506Z,8.75
2022-08-30T03:45:55.911Z,8.93
2022-08-30T03:48:22.400Z,8.88
2022-08-30T03:50:48.816Z,9.20
2022-08-30T03:53:15.418Z,9.05
2022-08-30T03:55:41.911Z,9.00
2022-08-30T03:58:08.408Z,8.90
2022-08-30T04:00:34.787Z,8.85
2022-08-30T04:03:01.443Z,8.80
2022-08-30T04:05:27.938Z,8.50
2022-08-30T04:07:54.740Z,8.70
2022-08-30T04:10:21.430Z,8.32
2022-08-30T04:12:50.986Z,8.57
2022-08-30T04:15:19.485Z,8.40
2022-08-30T04:17:46.415Z,8.63
2022-08-30T04:20:12.859Z,8.68
2022-08-30T04:22:39.338Z,8.45
2022-08-30T04:25:06.819Z,9.00
2022-08-30T04:27:33.709Z,8.55
2022-08-30T04:30:00.634Z,8.50
2022-08-30T04:32:27.617Z,8.40
2022-08-30T04:34:58.534Z,9.13
2022-08-30T04:37:25.174Z,8.70
2022-08-30T04:39:55.893Z,8.40
2022-08-30T04:42:22.332Z,8.50
2022-08-30T04:44:49.023Z,8.68
2022-08-30T04:47:15.440Z,8.70
2022-08-30T04:49:41.875Z,8.63
2022-08-30T04:52:10.133Z,8.43
2022-08-30T04:54:36.886Z,8.57
2022-08-30T04:57:03.719Z,8.90
2022-08-30T04:59:30.187Z,8.90
2022-08-30T05:01:56.686Z,8.55
2022-08-30T05:04:23.168Z,9.20
2022-08-30T05:06:49.669Z,9.23
2022-08-30T05:09:16.342Z,9.48
2022-08-30T05:11:43.367Z,8.85
2022-08-30T05:14:10.556Z,9.20
2022-08-30T05:16:37.186Z,8.75
2022-08-30T05:19:03.983Z,9.00
2022-08-30T05:21:30.571Z,8.48
2022-08-30T05:24:00.095Z,8.73
2022-08-30T05:26:35.997Z,8.88
2022-08-30T05:29:02.567Z,8.65
2022-08-30T05:31:31.972Z,8.60
2022-08-30T05:33:59.152Z,8.88
2022-08-30T05:36:28.191Z,9.30
2022-08-30T05:38:55.526Z,8.90
2022-08-30T05:41:26.697Z,9.07
2022-08-30T05:43:58.848Z,9.68
2022-08-30T05:46:29.411Z,8.70
2022-08-30T05:48:57.278Z,9.30
2022-08-30T05:51:26.509Z,9.00
2022-08-30T05:53:53.863Z,8.68
2022-08-30T05:56:24.807Z,9.02
2022-08-30T05:58:52.419Z,8.95
2022-08-30T06:01:25.593Z,8.90
2022-08-30T06:03:54.378Z,8.90
2022-08-30T06:06:21.635Z,9.30
2022-08-30T06:08:49.111Z,8.95
2022-08-30T06:11:19.346Z,8.82
2022-08-30T06:16:14.180Z,9.23
2022-08-30T06:18:40.968Z,9.32
2022-08-30T06:21:07.437Z,9.60
2022-08-30T06:23:34.228Z,9.00
2022-08-30T06:26:07.664Z,9.50
2022-08-30T06:28:34.948Z,9.68
2022-08-30T06:31:01.792Z,9.25
2022-08-30T06:33:28.299Z,8.90
2022-08-30T06:35:58.352Z,9.40
2022-08-30T06:38:25.155Z,9.15
2022-08-30T06:40:51.585Z,9.15
2022-08-30T06:43:18.270Z,9.30
2022-08-30T06:45:44.705Z,9.27
2022-08-30T06:48:11.250Z,9.32
2022-08-30T06:50:38.081Z,9.20
2022-08-30T06:53:06.025Z,8.80
2022-08-30T06:55:33.462Z,8.98
2022-08-30T06:58:01.278Z,9.00
2022-08-30T07:00:28.904Z,9.10
2022-08-30T07:02:55.534Z,9.25
2022-08-30T07:05:23.580Z,8.68
2022-08-30T07:07:54.206Z,9.23
2022-08-30T07:10:21.784Z,8.93
2022-08-30T07:12:48.860Z,9.07
2022-08-30T07:15:15.668Z,8.90
2022-08-30T07:18:00.813Z,8.38
2022-08-30T07:20:27.413Z,8.55
2022-08-30T07:22:53.893Z,8.25
2022-08-30T07:25:20.561Z,8.40
2022-08-30T07:27:47.074Z,8.40
2022-08-30T07:30:14.116Z,8.23
2022-08-30T07:32:40.672Z,8.15
2022-08-30T07:35:07.410Z,8.45
2022-08-30T07:37:33.987Z,8.63
2022-08-30T07:40:00.622Z,8.48
2022-08-30T07:42:27.381Z,8.52
2022-08-30T07:44:56.778Z,9.00
2022-08-30T07:47:23.569Z,8.57
2022-08-30T07:49:50.042Z,8.25
2022-08-30T07:52:16.473Z,8.45
2022-08-30T07:54:43.107Z,8.00
2022-08-30T07:57:09.711Z,8.13
2022-08-30T07:59:36.376Z,8.45
2022-08-30T08:02:03.458Z,8.40
2022-08-30T08:04:29.995Z,8.80
2022-08-30T08:06:56.425Z,8.45
2022-08-30T08:09:23.037Z,8.20
2022-08-30T08:11:49.779Z,8.40
2022-08-30T08:16:48.463Z,8.40
2022-08-30T08:19:15.479Z,8.02
2022-08-30T08:21:41.967Z,7.55
2022-08-30T08:24:08.602Z,7.63
2022-08-30T08:26:37.350Z,7.57
2022-08-30T08:29:05.826Z,7.25
2022-08-30T08:31:33.326Z,7.13
2022-08-30T08:34:03.078Z,7.70
2022-08-30T08:36:31.285Z,7.22
2022-08-30T08:38:58.552Z,7.35
2022-08-30T08:41:40.210Z,7.38
2022-08-30T08:44:34.752Z,7.10
2022-08-30T08:47:36.669Z,7.20
2022-08-30T08:50:08.107Z,7.57
2022-08-30T08:53:20.386Z,7.22
2022-08-30T08:55:53.161Z,7.50
2022-08-30T08:58:29.403Z,7.20
2022-08-30T09:00:58.101Z,7.20
2022-08-30T09:03:28.400Z,7.20
2022-08-30T09:05:55.494Z,7.32
2022-08-30T09:08:23.525Z,7.45
2022-08-30T09:11:01.689Z,6.93
2022-08-30T09:13:28.475Z,7.57
2022-08-30T09:15:59.558Z,7.50
2022-08-30T09:18:51.372Z,7.45
2022-08-30T09:21:25.644Z,7.10
2022-08-30T09:24:00.930Z,7.00
2022-08-30T09:26:36.135Z,7.40
2022-08-30T09:29:05.112Z,7.10
2022-08-30T09:31:46.272Z,7.38
2022-08-30T09:34:18.377Z,7.28
2022-08-30T09:36:49.770Z,7.10
2022-08-30T09:39:34.498Z,7.28
2022-08-30T09:42:31.021Z,7.03
2022-08-30T09:45:10.459Z,7.22
2022-08-30T09:47:43.148Z,7.32
2022-08-30T09:50:15.817Z,7.40
2022-08-30T09:52:55.460Z,7.28
2022-08-30T09:55:22.061Z,7.00
2022-08-30T09:58:06.230Z,7.57
2022-08-30T10:00:41.105Z,7.55
2022-08-30T10:03:35.715Z,7.38
2022-08-30T10:06:06.569Z,7.57
2022-08-30T10:08:45.278Z,7.50
2022-08-30T10:11:20.535Z,7.65
2022-08-30T10:13:58.958Z,7.72
2022-08-30T10:16:40.013Z,7.28
2022-08-30T10:19:43.067Z,7.80
2022-08-30T10:22:17.775Z,7.80
2022-08-30T10:24:50.382Z,7.80
2022-08-30T10:27:31.954Z,7.78
2022-08-30T10:30:08.525Z,8.10
2022-08-30T10:32:48.456Z,7.90
2022-08-30T10:35:29.072Z,7.90
2022-08-30T10:38:08.026Z,7.50
2022-08-30T10:40:56.284Z,7.75
2022-08-30T10:43:34.510Z,7.57
2022-08-30T10:46:05.718Z,7.82
2022-08-30T10:48:44.358Z,7.90
2022-08-30T10:51:41.932Z,7.65
2022-08-30T10:54:18.566Z,7.70
2022-08-30T10:56:49.570Z,7.70
2022-08-30T10:59:20.435Z,7.90
2022-08-30T11:02:07.746Z,8.00
2022-08-30T11:04:45.466Z,8.07
2022-08-30T11:07:30.840Z,7.85
2022-08-30T11:10:16.122Z,7.82
2022-08-30T11:12:51.392Z,8.07
2022-08-30T11:15:24.652Z,8.18
2022-08-30T11:18:09.414Z,7.90
2022-08-30T11:20:50.043Z,8.40
2022-08-30T11:23:36.371Z,8.00
2022-08-30T11:26:12.079Z,7.70
2022-08-30T11:28:47.307Z,8.00
2022-08-30T11:31:23.652Z,8.13
2022-08-30T11:33:58.861Z,8.25
2022-08-30T11:36:37.420Z,7.97
2022-08-30T11:39:10.631Z,7.78
2022-08-30T11:41:43.178Z,7.78
2022-08-30T11:44:28.617Z,7.97
2022-08-30T11:47:01.899Z,7.60
2022-08-30T11:50:09.718Z,7.80
2022-08-30T11:52:56.487Z,7.80
2022-08-30T11:55:23.096Z,7.65
2022-08-30T11:58:24.055Z,7.80
2022-08-30T12:01:40.949Z,7.85
2022-08-30T12:04:05.941Z,7.55
2022-08-30T12:06:41.533Z,8.00
2022-08-30T12:09:33.299Z,7.70
2022-08-30T12:12:05.868Z,7.70
2022-08-30T12:14:37.105Z,7.78
2022-08-30T12:17:35.983Z,7.90
2022-08-30T12:20:05.327Z,7.57
2022-08-30T12:22:37.755Z,8.00
2022-08-30T12:25:16.644Z,8.20
2022-08-30T12:27:43.195Z,7.70
2022-08-30T12:30:10.330Z,8.20
2022-08-30T12:32:45.891Z,7.88
2022-08-30T12:35:25.625Z,7.30
2022-08-30T12:38:06.065Z,7.60
2022-08-30T12:40:34.595Z,7.68
2022-08-30T12:43:07.752Z,8.02
2022-08-30T12:45:44.050Z,7.90
2022-08-30T12:48:15.807Z,7.70
2022-08-30T12:50:55.147Z,7.43
2022-08-30T12:53:29.587Z,7.60
2022-08-30T12:55:59.647Z,7.20
2022-08-30T12:58:35.888Z,7.65
2022-08-30T13:01:28.716Z,7.88
2022-08-30T13:04:11.070Z,7.22
2022-08-30T13:06:48.528Z,7.45
2022-08-30T13:09:42.645Z,7.03
2022-08-30T13:12:30.901Z,7.03
2022-08-30T13:15:20.729Z,7.25
2022-08-30T13:17:47.367Z,7.00
2022-08-30T13:20:16.536Z,7.20
2022-08-30T13:23:02.800Z,7.43
2022-08-30T13:25:30.863Z,7.13
2022-08-30T13:28:01.143Z,7.18
2022-08-30T13:30:28.284Z,7.22
2022-08-30T13:32:55.833Z,7.20
2022-08-30T13:35:22.494Z,7.50
2022-08-30T13:37:50.667Z,7.18
2022-08-30T13:40:19.420Z,7.60
2022-08-30T13:42:46.799Z,8.05
2022-08-30T13:48:01.725Z,7.60
2022-08-30T13:50:28.203Z,7.70
2022-08-30T13:52:56.951Z,7.75
2022-08-30T13:55:23.483Z,7.70
2022-08-30T13:57:57.347Z,7.50
2022-08-30T14:00:25.608Z,7.20
2022-08-30T14:02:57.184Z,6.97
2022-08-30T14:13:32.156Z,7.00
2022-08-30T14:18:48.872Z,7.03
2022-08-30T14:21:15.672Z,7.15
2022-08-30T14:23:42.176Z,7.30
2022-08-30T14:26:15.269Z,7.40
2022-08-30T14:28:44.801Z,7.30
2022-08-30T14:31:12.004Z,7.50
2022-08-30T14:33:39.827Z,7.47
2022-08-30T14:36:10.941Z,7.53
2022-08-30T14:38:39.701Z,7.63
2022-08-30T16:09:30.084Z,8.80
2022-08-30T16:11:59.571Z,8.80
2022-08-30T16:14:27.546Z,9.57
2022-08-30T16:16:55.262Z,8.77
2022-08-30T16:19:21.701Z,8.20
2022-08-30T16:21:48.668Z,8.82
2022-08-30T16:24:15.331Z,8.65
2022-08-30T16:26:43.053Z,8.88
2022-08-30T16:29:10.037Z,8.70
2022-08-30T16:31:37.224Z,8.88
2022-08-30T16:34:04.754Z,9.20
2022-08-30T16:36:32.674Z,8.73
2022-08-30T16:38:59.407Z,8.82
2022-08-30T16:41:26.003Z,8.63
2022-08-30T16:43:53.333Z,8.65
2022-08-30T16:46:26.905Z,8.18
2022-08-30T16:48:56.342Z,8.40
2022-08-30T16:51:25.202Z,8.25
2022-08-30T16:53:56.977Z,8.10
2022-08-30T16:56:26.542Z,8.02
2022-08-30T17:01:30.128Z,8.25
2022-08-30T17:03:56.890Z,7.82
2022-08-30T17:06:23.578Z,7.93
2022-08-30T17:08:50.714Z,8.30
2022-08-30T17:11:22.765Z,8.60
2022-08-30T17:13:49.211Z,8.60
2022-08-30T17:16:17.681Z,8.60
2022-08-30T17:18:53.732Z,8.73
2022-08-30T17:21:20.317Z,8.60
2022-08-30T17:23:49.327Z,8.30
2022-08-30T17:26:16.618Z,9.27
2022-08-30T17:28:43.172Z,8.57
2022-08-30T17:31:11.231Z,8.80
2022-08-30T17:33:39.835Z,8.90
2022-08-30T17:36:07.218Z,8.85
2022-08-30T17:38:33.949Z,8.90
2022-08-30T17:41:05.241Z,8.68
2022-08-30T17:43:32.856Z,8.70
2022-08-30T17:46:06.961Z,8.88
2022-08-30T17:48:34.539Z,8.68
2022-08-30T17:51:02.513Z,9.10
2022-08-30T17:53:29.932Z,8.90
2022-08-30T17:55:56.501Z,9.25
2022-08-30T17:58:25.079Z,8.75
2022-08-30T18:00:54.050Z,8.80
2022-08-30T18:03:20.786Z,8.63
2022-08-30T18:05:47.517Z,8.75
2022-08-30T18:08:14.147Z,8.82
2022-08-30T18:10:40.769Z,8.68
2022-08-30T18:13:07.485Z,8.57
2022-08-30T18:15:33.927Z,9.10
2022-08-30T18:18:00.687Z,9.15
2022-08-30T18:20:27.197Z,8.93
2022-08-30T18:22:57.867Z,8.82
2022-08-30T18:25:24.386Z,8.98
2022-08-30T18:27:57.101Z,9.05
2022-08-30T18:30:31.188Z,9.32
2022-08-30T18:33:00.721Z,9.30
2022-08-30T18:35:27.582Z,9.60
2022-08-30T18:37:54.239Z,9.40
2022-08-30T18:40:21.110Z,9.50
2022-08-30T18:42:47.805Z,9.75
2022-08-30T18:45:18.970Z,9.10
2022-08-30T18:47:45.412Z,9.40
2022-08-30T18:50:12.496Z,9.27
2022-08-30T18:52:39.129Z,8.95
2022-08-30T18:55:07.273Z,9.60
2022-08-30T18:57:35.077Z,9.05
2022-08-30T19:00:03.605Z,9.40
2022-08-30T19:02:30.287Z,9.15
2022-08-30T19:04:56.835Z,9.48
2022-08-30T19:07:26.684Z,9.00
2022-08-30T19:09:58.929Z,9.50
2022-08-30T19:12:26.159Z,9.25
2022-08-30T19:14:54.179Z,9.70
2022-08-30T19:17:22.946Z,9.60
2022-08-30T19:19:52.399Z,9.80
2022-08-30T19:22:21.502Z,9.73
2022-08-30T19:24:50.039Z,9.75
2022-08-30T19:27:19.154Z,9.27
2022-08-30T19:29:53.679Z,9.30
2022-08-30T19:32:20.703Z,9.52
2022-08-30T19:34:47.137Z,9.23
2022-08-30T19:37:18.629Z,9.40
2022-08-30T19:39:46.765Z,9.60
2022-08-30T19:42:13.897Z,9.10
2022-08-30T19:44:40.387Z,8.80
2022-08-30T19:47:07.452Z,9.00
2022-08-30T19:49:35.034Z,9.05
2022-08-30T19:52:01.811Z,8.93
2022-08-30T19:54:28.277Z,9.45
2022-08-30T19:56:54.721Z,8.98
2022-08-30T19:59:21.119Z,8.65
2022-08-30T20:01:47.940Z,8.70
2022-08-30T20:04:15.904Z,8.73
2022-08-30T20:06:42.535Z,8.88
2022-08-30T20:09:10.543Z,8.73
2022-08-30T20:11:38.341Z,8.77
2022-08-30T20:14:05.243Z,10.38
2022-08-30T20:16:37.895Z,9.80
2022-08-30T20:19:06.150Z,9.23
2022-08-30T20:21:32.786Z,9.40
2022-08-30T20:24:00.836Z,9.18
2022-08-30T20:26:33.478Z,8.75
2022-08-30T20:29:01.787Z,9.38
2022-08-30T20:31:29.004Z,9.02
2022-08-30T20:33:55.521Z,8.82
2022-08-30T20:36:21.991Z,9.35
2022-08-30T20:38:48.636Z,8.75
2022-08-30T20:41:17.765Z,9.52
2022-08-30T20:43:45.405Z,8.82
2022-08-30T20:46:17.454Z,8.82
2022-08-30T20:48:44.455Z,9.10
2022-08-30T20:51:14.370Z,8.75
2022-08-30T20:53:41.213Z,8.93
2022-08-30T20:56:16.170Z,8.02
2022-08-30T20:58:43.207Z,8.48
2022-08-30T21:01:11.868Z,8.60
2022-08-30T21:03:39.298Z,8.80
2022-08-30T21:06:07.374Z,9.07
2022-08-30T21:08:34.091Z,9.25
2022-08-30T21:11:00.721Z,8.90
2022-08-30T21:13:27.266Z,8.60
2022-08-30T21:15:56.154Z,8.88
2022-08-30T21:18:32.950Z,9.32
2022-08-30T21:21:07.349Z,9.00
2022-08-30T21:23:35.335Z,8.18
2022-08-30T21:26:05.614Z,8.20
2022-08-30T21:31:12.603Z,8.40
2022-08-30T21:33:40.308Z,8.80
2022-08-30T21:36:26.708Z,8.68
2022-08-30T21:38:53.869Z,8.32
2022-08-30T21:41:26.931Z,8.68
2022-08-30T21:43:58.030Z,8.38
2022-08-30T21:46:26.181Z,8.90
2022-08-30T21:48:53.529Z,8.63
2022-08-30T21:51:20.936Z,8.73
2022-08-30T21:53:49.665Z,9.10
2022-08-30T21:56:21.699Z,8.90
2022-08-30T21:58:49.138Z,9.30
2022-08-30T22:01:18.769Z,9.25
2022-08-30T22:03:45.471Z,9.35
2022-08-30T22:06:14.208Z,9.27
2022-08-30T22:08:43.048Z,9.50
2022-08-30T22:11:12.026Z,9.00
2022-08-30T22:13:41.712Z,9.20
2022-08-30T22:16:09.599Z,9.02
2022-08-30T22:18:36.859Z,9.50
2022-08-30T22:21:04.198Z,8.98
2022-08-30T22:23:34.344Z,9.63
2022-08-30T22:26:02.427Z,9.40
2022-08-30T22:28:29.103Z,9.43
2022-08-30T22:30:55.746Z,9.73
2022-08-30T22:33:22.234Z,10.00
2022-08-30T22:35:48.781Z,9.68
2022-08-30T22:38:15.469Z,10.00
2022-08-30T22:40:50.050Z,10.18
2022-08-30T22:43:17.232Z,9.77
2022-08-30T22:45:44.515Z,9.93
2022-08-30T22:48:11.791Z,9.70
2022-08-30T22:50:38.411Z,9.85
2022-08-30T22:53:05.430Z,10.15
2022-08-30T22:55:32.513Z,10.00
2022-08-30T22:57:59.086Z,10.00
2022-08-30T23:00:25.695Z,9.55
2022-08-30T23:02:53.791Z,10.20
2022-08-30T23:05:22.962Z,10.02
2022-08-30T23:07:50.748Z,10.23
2022-08-30T23:10:17.534Z,10.07
2022-08-30T23:12:44.080Z,9.85
2022-08-30T23:15:14.215Z,10.50
2022-08-30T23:17:40.885Z,10.55
2022-08-30T23:20:08.354Z,9.93
2022-08-30T23:22:34.804Z,10.32
2022-08-30T23:25:19.575Z,10.18
2022-08-30T23:28:05.226Z,10.27
2022-08-30T23:30:49.978Z,10.70
2022-08-30T23:33:35.071Z,10.73
2022-08-30T23:36:32.052Z,11.00
2022-08-30T23:39:17.619Z,11.57
2022-08-30T23:42:02.562Z,11.73
2022-08-30T23:44:47.653Z,11.68
2022-08-30T23:47:32.644Z,11.27
2022-08-30T23:50:17.675Z,11.20
2022-08-30T23:53:02.722Z,11.20
2022-08-30T23:55:47.577Z,11.43
2022-08-30T23:58:32.714Z,11.57
